Time;durP1;ratioP1;P1;durP2;ratioP2;P2;SDS_P1;SDS_P2;PMS_P1;PMS_P2;Temp;Humidity;BMP_temperature;BMP_pressure;BME280_temperature;BME280_humidity;BME280_pressure;Samples;Min_cycle;Max_cycle;Signal;HPM_P1;HPM_P2
2021/03/13 00:01:04;;;;;;;5.55;1.67;;;;;;;;;;4293809;33;20111;-77
2021/03/13 00:03:33;;;;;;;11.05;2.08;;;;;;;;;;4305046;33;20156;-76
2021/03/13 00:06:01;;;;;;;10.20;2.20;;;;;;;;;;4305424;33;20037;-79
2021/03/13 00:08:29;;;;;;;6.87;2.08;;;;;;;;;;4302983;33;20718;-77
2021/03/13 00:10:57;;;;;;;6.25;1.73;;;;;;;;;;4297337;33;20073;-77
2021/03/13 00:13:25;;;;;;;7.45;2.05;;;;;;;;;;4300436;33;20053;-77
2021/03/13 00:15:53;;;;;;;9.48;1.58;;;;;;;;;;4302841;33;20178;-76
2021/03/13 00:18:22;;;;;;;11.38;1.55;;;;;;;;;;4301208;33;20053;-77
2021/03/13 00:20:50;;;;;;;8.38;1.55;;;;;;;;;;4290390;33;20103;-76
2021/03/13 00:23:18;;;;;;;12.15;1.83;;;;;;;;;;4300391;33;20417;-76
2021/03/13 00:25:46;;;;;;;7.32;1.80;;;;;;;;;;4294085;33;20133;-76
2021/03/13 00:28:14;;;;;;;10.43;2.28;;;;;;;;;;4299144;33;20609;-76
2021/03/13 00:30:44;;;;;;;7.20;2.20;;;;;;;;;;4301544;33;20437;-77
2021/03/13 00:33:13;;;;;;;11.52;1.70;;;;;;;;;;4289735;33;20451;-78
2021/03/13 00:35:42;;;;;;;8.93;1.92;;;;;;;;;;4292632;33;20083;-77
2021/03/13 00:38:11;;;;;;;6.78;1.50;;;;;;;;;;4292706;33;20552;-77
2021/03/13 00:40:40;;;;;;;9.32;1.60;;;;;;;;;;4296221;33;20128;-79
2021/03/13 00:43:09;;;;;;;9.60;1.67;;;;;;;;;;4292973;33;20818;-77
2021/03/13 00:45:38;;;;;;;10.50;1.60;;;;;;;;;;4297180;33;20123;-78
2021/03/13 00:48:07;;;;;;;9.25;1.90;;;;;;;;;;4296169;33;20222;-76
2021/03/13 00:50:37;;;;;;;7.95;1.70;;;;;;;;;;4293248;33;20080;-77
2021/03/13 00:53:06;;;;;;;9.30;1.62;;;;;;;;;;4293054;33;20132;-78
2021/03/13 00:55:34;;;;;;;4.95;1.23;;;;;;;;;;4291020;33;20135;-78
2021/03/13 00:58:03;;;;;;;12.43;1.80;;;;;;;;;;4302248;33;20534;-77
2021/03/13 01:00:38;;;;;;;;;;;;;;;;;;4302400;33;20559;-77
2021/03/13 01:03:06;;;;;;;3.90;1.35;;;;;;;;;;4294067;33;20003;-77
2021/03/13 01:05:35;;;;;;;4.22;1.42;;;;;;;;;;4295036;33;20127;-76
2021/03/13 01:08:07;;;;;;;7.62;1.83;;;;;;;;;;4293664;33;20128;-78
2021/03/13 01:10:52;;;;;;;7.18;1.62;;;;;;;;;;4295320;33;20084;-77
2021/03/13 01:13:21;;;;;;;9.25;1.50;;;;;;;;;;4291434;33;20064;-77
2021/03/13 01:15:50;;;;;;;10.50;1.30;;;;;;;;;;4296808;33;20071;-78
2021/03/13 01:18:19;;;;;;;8.88;1.45;;;;;;;;;;4293613;33;20111;-77
2021/03/13 01:20:49;;;;;;;11.52;1.62;;;;;;;;;;4295130;33;20440;-77
2021/03/13 01:23:18;;;;;;;6.18;1.40;;;;;;;;;;4295324;33;20045;-78
2021/03/13 01:25:46;;;;;;;6.72;1.17;;;;;;;;;;4297851;33;20060;-77
2021/03/13 01:28:15;;;;;;;6.47;1.25;;;;;;;;;;4306404;33;20115;-77
2021/03/13 01:31:00;;;;;;;9.43;1.62;;;;;;;;;;4302782;33;20064;-77
2021/03/13 01:33:29;;;;;;;8.07;1.70;;;;;;;;;;4293129;33;20170;-79
2021/03/13 01:35:58;;;;;;;8.43;1.55;;;;;;;;;;4296114;33;20127;-76
2021/03/13 01:38:27;;;;;;;9.60;1.75;;;;;;;;;;4305302;33;20064;-78
2021/03/13 01:40:56;;;;;;;8.68;1.37;;;;;;;;;;4303934;33;20111;-77
2021/03/13 01:43:24;;;;;;;5.75;1.30;;;;;;;;;;4290884;33;20098;-78
2021/03/13 01:45:52;;;;;;;8.00;1.30;;;;;;;;;;4297181;33;20436;-77
2021/03/13 01:48:23;;;;;;;7.53;1.50;;;;;;;;;;4295533;33;22039;-78
2021/03/13 01:50:51;;;;;;;6.45;1.20;;;;;;;;;;4292826;33;20107;-77
2021/03/13 01:53:19;;;;;;;7.93;1.37;;;;;;;;;;4291730;33;20124;-78
2021/03/13 01:55:48;;;;;;;6.78;1.58;;;;;;;;;;4303841;33;20361;-77
2021/03/13 01:58:16;;;;;;;7.32;1.77;;;;;;;;;;4303717;33;20069;-77
2021/03/13 02:00:51;;;;;;;8.43;1.45;;;;;;;;;;4294139;33;20127;-77
2021/03/13 02:03:20;;;;;;;12.63;2.40;;;;;;;;;;4290705;33;20487;-79
2021/03/13 02:05:58;;;;;;;13.25;1.70;;;;;;;;;;4299427;33;20060;-77
2021/03/13 02:08:36;;;;;;;8.93;1.50;;;;;;;;;;4302325;33;20061;-77
2021/03/13 02:11:14;;;;;;;7.30;1.80;;;;;;;;;;4301678;33;20356;-77
2021/03/13 02:14:01;;;;;;;7.53;1.62;;;;;;;;;;4301092;33;20111;-77
2021/03/13 02:16:35;;;;;;;10.98;1.60;;;;;;;;;;4304899;33;20428;-76
2021/03/13 02:19:06;;;;;;;8.82;1.65;;;;;;;;;;4305679;33;20449;-77
2021/03/13 02:21:44;;;;;;;8.88;1.75;;;;;;;;;;4291874;33;20075;-79
2021/03/13 02:24:25;;;;;;;5.53;1.33;;;;;;;;;;4302057;33;20076;-77
2021/03/13 02:26:57;;;;;;;12.40;1.60;;;;;;;;;;4306812;33;20061;-77
2021/03/13 02:29:34;;;;;;;6.57;1.62;;;;;;;;;;4304672;33;20100;-77
2021/03/13 02:32:04;;;;;;;7.30;1.20;;;;;;;;;;4292309;33;21768;-77
2021/03/13 02:34:35;;;;;;;7.05;1.15;;;;;;;;;;4297017;33;20112;-77
2021/03/13 02:37:11;;;;;;;10.93;1.60;;;;;;;;;;4305368;33;20111;-78
2021/03/13 02:39:41;;;;;;;19.40;13.13;;;;;;;;;;4299475;33;20374;-77
2021/03/13 02:42:10;;;;;;;17.58;13.50;;;;;;;;;;4289150;33;20072;-79
2021/03/13 02:44:39;;;;;;;17.50;11.80;;;;;;;;;;4294853;33;20203;-77
2021/03/13 02:47:09;;;;;;;17.02;12.98;;;;;;;;;;4298282;33;21797;-76
2021/03/13 02:49:39;;;;;;;17.25;13.27;;;;;;;;;;4301468;33;20761;-77
2021/03/13 02:52:07;;;;;;;13.75;9.60;;;;;;;;;;4297499;33;20527;-77
2021/03/13 02:54:37;;;;;;;13.05;8.95;;;;;;;;;;4304215;33;20061;-77
2021/03/13 02:57:06;;;;;;;15.40;12.27;;;;;;;;;;4308956;33;20092;-77
2021/03/13 02:59:36;;;;;;;17.87;14.70;;;;;;;;;;4304413;33;20124;-77
2021/03/13 03:02:06;;;;;;;10.90;7.78;;;;;;;;;;4297538;33;20873;-78
2021/03/13 03:04:36;;;;;;;10.25;1.48;;;;;;;;;;4299375;33;20427;-77
2021/03/13 03:07:04;;;;;;;16.75;13.93;;;;;;;;;;4300494;33;20143;-77
2021/03/13 03:09:32;;;;;;;17.55;14.10;;;;;;;;;;4296748;33;20079;-78
2021/03/13 03:12:01;;;;;;;9.27;1.75;;;;;;;;;;4331273;27;20040;-95
2021/03/13 03:14:33;;;;;;;6.25;1.52;;;;;;;;;;4306095;33;20092;-95
2021/03/13 03:17:14;;;;;;;18.35;11.95;;;;;;;;;;4305574;33;20064;-94
2021/03/13 03:19:49;;;;;;;8.75;2.25;;;;;;;;;;4295804;33;20076;-95
2021/03/13 03:22:25;;;;;;;9.25;2.85;;;;;;;;;;4302087;33;20048;-96
2021/03/13 03:24:59;;;;;;;;;;;;;;;;;;4303522;33;20060;-96
2021/03/13 03:27:33;;;;;;;10.40;2.67;;;;;;;;;;4287312;33;20003;-96
2021/03/13 03:30:06;;;;;;;6.97;2.30;;;;;;;;;;4298377;33;20100;-95
2021/03/13 03:32:38;;;;;;;7.37;2.08;;;;;;;;;;4302812;33;20516;-96
2021/03/13 03:35:13;;;;;;;11.82;2.90;;;;;;;;;;4292391;33;20107;-96
2021/03/13 03:37:45;;;;;;;7.62;2.62;;;;;;;;;;4304061;33;20064;-95
2021/03/13 03:40:18;;;;;;;8.95;2.70;;;;;;;;;;4294886;33;20090;-96
2021/03/13 03:43:03;;;;;;;7.05;1.80;;;;;;;;;;4291753;33;20052;-96
2021/03/13 03:45:47;;;;;;;11.43;2.58;;;;;;;;;;4287873;33;20088;-95
2021/03/13 03:48:23;;;;;;;9.98;2.30;;;;;;;;;;4291731;33;20393;-95
2021/03/13 03:50:59;;;;;;;8.32;1.92;;;;;;;;;;4305842;33;20406;-94
2021/03/13 03:53:39;;;;;;;8.15;2.20;;;;;;;;;;4296012;33;20088;-95
2021/03/13 03:56:08;;;;;;;9.60;2.28;;;;;;;;;;4288895;33;20119;-96
2021/03/13 03:58:48;;;;;;;6.35;2.55;;;;;;;;;;4291821;33;20392;-96
2021/03/13 04:01:21;;;;;;;11.18;3.10;;;;;;;;;;4302577;33;20074;-95
2021/03/13 04:04:14;;;;;;;8.95;2.78;;;;;;;;;;4303007;33;20072;-96
2021/03/13 04:06:42;;;;;;;9.63;3.37;;;;;;;;;;4291568;33;20065;-95
2021/03/13 04:09:12;;;;;;;6.22;2.42;;;;;;;;;;4300551;33;20422;-96
2021/03/13 04:11:54;;;;;;;5.70;2.28;;;;;;;;;;4296783;33;20066;-96
2021/03/13 04:14:36;;;;;;;7.93;2.80;;;;;;;;;;4292119;33;20048;-96
2021/03/13 04:17:11;;;;;;;7.93;2.40;;;;;;;;;;4290985;33;20072;-95
2021/03/13 04:19:46;;;;;;;11.12;2.85;;;;;;;;;;4302363;33;20320;-95
2021/03/13 04:22:14;;;;;;;9.57;2.53;;;;;;;;;;4300022;33;20068;-96
2021/03/13 04:24:47;;;;;;;11.73;2.87;;;;;;;;;;4312470;33;20056;-95
2021/03/13 04:27:17;;;;;;;9.45;2.55;;;;;;;;;;4291631;33;20060;-96
2021/03/13 04:29:50;;;;;;;8.57;2.97;;;;;;;;;;4292367;33;20057;-96
2021/03/13 04:32:36;;;;;;;9.80;2.85;;;;;;;;;;4311672;33;20084;-96
2021/03/13 04:35:10;;;;;;;7.40;2.55;;;;;;;;;;4303102;33;20059;-96
2021/03/13 04:37:44;;;;;;;12.20;2.20;;;;;;;;;;4291824;33;20131;-96
2021/03/13 04:40:18;;;;;;;7.75;2.75;;;;;;;;;;4300908;33;20091;-95
2021/03/13 04:43:10;;;;;;;9.85;2.60;;;;;;;;;;4294306;33;20075;-96
2021/03/13 04:45:45;;;;;;;8.20;2.00;;;;;;;;;;4300611;33;20071;-96
2021/03/13 04:48:29;;;;;;;9.43;2.60;;;;;;;;;;4289495;33;20156;-96
2021/03/13 04:51:09;;;;;;;7.60;2.50;;;;;;;;;;4289716;33;20079;-96
2021/03/13 04:53:37;;;;;;;7.12;2.62;;;;;;;;;;4291529;33;20064;-96
2021/03/13 04:56:21;;;;;;;7.80;2.75;;;;;;;;;;4300824;33;20092;-95
2021/03/13 04:58:51;;;;;;;8.48;2.47;;;;;;;;;;4302838;33;20080;-94
2021/03/13 05:01:22;;;;;;;9.73;3.20;;;;;;;;;;4288101;33;20442;-96
2021/03/13 05:03:55;;;;;;;9.48;2.35;;;;;;;;;;4299342;33;20060;-95
2021/03/13 05:06:34;;;;;;;7.82;3.28;;;;;;;;;;4292262;33;20111;-96
2021/03/13 05:09:07;;;;;;;7.75;3.37;;;;;;;;;;4289098;33;20048;-95
2021/03/13 05:11:50;;;;;;;6.37;3.72;;;;;;;;;;4300609;33;20108;-95
2021/03/13 05:14:25;;;;;;;13.85;3.83;;;;;;;;;;4289949;33;20048;-95
2021/03/13 05:16:58;;;;;;;11.98;3.25;;;;;;;;;;4299382;33;20099;-96
2021/03/13 05:19:27;;;;;;;9.93;3.65;;;;;;;;;;4310993;33;20067;-96
2021/03/13 05:22:03;;;;;;;10.60;3.42;;;;;;;;;;4292647;33;20100;-95
2021/03/13 05:24:36;;;;;;;9.93;3.85;;;;;;;;;;4301646;33;20078;-96
2021/03/13 05:27:11;;;;;;;11.48;3.67;;;;;;;;;;4308881;33;20071;-96
2021/03/13 05:29:39;;;;;;;6.25;3.22;;;;;;;;;;4299656;33;20069;-96
2021/03/13 05:32:13;;;;;;;5.87;3.00;;;;;;;;;;4295165;33;20131;-96
2021/03/13 05:34:48;;;;;;;14.65;3.47;;;;;;;;;;4303787;33;20100;-96
2021/03/13 05:37:23;;;;;;;9.82;6.05;;;;;;;;;;4288147;33;20478;-96
2021/03/13 05:39:56;;;;;;;12.82;8.27;;;;;;;;;;4309885;33;20426;-95
2021/03/13 05:42:32;;;;;;;23.10;18.00;;;;;;;;;;4301154;33;20061;-95
2021/03/13 05:45:07;;;;;;;18.60;13.82;;;;;;;;;;4311112;33;20151;-96
2021/03/13 05:47:51;;;;;;;22.08;19.23;;;;;;;;;;4290521;33;20414;-96
2021/03/13 05:50:27;;;;;;;22.85;16.90;;;;;;;;;;4287868;33;21310;-96
2021/03/13 05:53:22;;;;;;;11.18;9.77;;;;;;;;;;4290019;33;20096;-95
2021/03/13 05:55:53;;;;;;;23.03;19.93;;;;;;;;;;4299941;33;20101;-96
2021/03/13 05:58:26;;;;;;;26.00;21.37;;;;;;;;;;4287711;33;20453;-96
2021/03/13 06:00:54;;;;;;;17.52;15.68;;;;;;;;;;4296402;33;20128;-94
2021/03/13 06:03:27;;;;;;;29.23;26.15;;;;;;;;;;4299163;33;20045;-95
2021/03/13 06:05:56;;;;;;;29.73;24.80;;;;;;;;;;4288838;33;20049;-96
2021/03/13 06:08:27;;;;;;;29.45;26.27;;;;;;;;;;4295018;33;20080;-96
2021/03/13 06:10:59;;;;;;;34.08;25.67;;;;;;;;;;4286092;33;20075;-96
2021/03/13 06:13:35;;;;;;;29.42;26.35;;;;;;;;;;4287231;33;20104;-96
2021/03/13 06:16:16;;;;;;;33.25;24.48;;;;;;;;;;4296730;33;20079;-95
2021/03/13 06:18:51;;;;;;;28.65;25.45;;;;;;;;;;4284814;33;20082;-96
2021/03/13 06:21:42;;;;;;;32.93;25.63;;;;;;;;;;4300715;33;20078;-95
2021/03/13 06:24:13;;;;;;;33.20;27.05;;;;;;;;;;4304065;33;20164;-96
2021/03/13 06:26:56;;;;;;;37.58;27.50;;;;;;;;;;4300076;33;20127;-95
2021/03/13 06:29:34;;;;;;;38.88;28.10;;;;;;;;;;4300001;33;20116;-96
2021/03/13 06:32:13;;;;;;;34.88;27.52;;;;;;;;;;4294762;33;20112;-94
2021/03/13 06:35:17;;;;;;;38.97;29.73;;;;;;;;;;4291436;33;20046;-95
2021/03/13 06:37:50;;;;;;;37.80;28.65;;;;;;;;;;4293421;33;20072;-95
2021/03/13 06:40:35;;;;;;;38.63;27.67;;;;;;;;;;4288632;33;20062;-95
2021/03/13 06:43:25;;;;;;;37.72;27.52;;;;;;;;;;4290963;33;20064;-96
2021/03/13 06:45:59;;;;;;;33.10;25.70;;;;;;;;;;4297441;33;20127;-95
2021/03/13 06:48:29;;;;;;;42.60;27.77;;;;;;;;;;4300018;33;21182;-95
2021/03/13 06:51:18;;;;;;;41.67;28.70;;;;;;;;;;4305251;33;20077;-96
2021/03/13 06:54:08;;;;;;;32.67;26.83;;;;;;;;;;4295133;33;20061;-96
2021/03/13 06:56:39;;;;;;;40.15;28.40;;;;;;;;;;4303491;33;20049;-95
2021/03/13 06:59:22;;;;;;;40.08;26.80;;;;;;;;;;4302187;33;20072;-96
2021/03/13 07:02:04;;;;;;;39.57;27.10;;;;;;;;;;4292194;33;20053;-96
2021/03/13 07:04:42;;;;;;;38.92;28.85;;;;;;;;;;4295226;33;20100;-96
2021/03/13 07:07:14;;;;;;;;;;;;;;;;;;4292436;33;20101;-96
2021/03/13 07:09:54;;;;;;;15.45;12.27;;;;;;;;;;4290445;33;19949;-96
2021/03/13 07:12:24;;;;;;;12.10;6.90;;;;;;;;;;4300484;33;20161;-96
2021/03/13 07:15:15;;;;;;;8.75;3.35;;;;;;;;;;4294122;33;20065;-96
2021/03/13 07:17:58;;;;;;;8.35;3.25;;;;;;;;;;4299459;33;20057;-96
2021/03/13 07:20:44;;;;;;;9.50;3.53;;;;;;;;;;4292119;33;20045;-95
2021/03/13 07:23:24;;;;;;;10.90;3.50;;;;;;;;;;4305556;33;20103;-96
2021/03/13 07:26:08;;;;;;;10.70;3.40;;;;;;;;;;4302604;33;20595;-95
2021/03/13 07:28:50;;;;;;;16.25;13.30;;;;;;;;;;4301235;33;20552;-96
2021/03/13 07:31:55;;;;;;;17.42;14.82;;;;;;;;;;4314658;33;20100;-96
2021/03/13 07:35:27;;;;;;;;;;;;;;;;;;;;;
2021/03/13 07:38:36;;;;;;;12.23;3.62;;;;;;;;;;4311107;33;20044;-96
2021/03/13 07:41:16;;;;;;;14.38;4.00;;;;;;;;;;4296853;33;20067;-96
2021/03/13 07:44:12;;;;;;;12.93;4.47;;;;;;;;;;4309767;33;20092;-96
2021/03/13 07:47:03;;;;;;;13.98;4.40;;;;;;;;;;4302240;33;20117;-96
2021/03/13 07:49:45;;;;;;;12.52;4.00;;;;;;;;;;4304769;33;20064;-94
2021/03/13 07:52:43;;;;;;;17.12;4.45;;;;;;;;;;4295452;33;20110;-95
2021/03/13 07:55:27;;;;;;;11.63;4.00;;;;;;;;;;4305163;33;20045;-96
2021/03/13 07:57:55;;;;;;;15.05;4.30;;;;;;;;;;4299889;33;20131;-95
2021/03/13 08:00:49;;;;;;;11.63;4.00;;;;;;;;;;4291507;33;20491;-96
2021/03/13 08:03:33;;;;;;;12.65;6.25;;;;;;;;;;4302709;33;20111;-95
2021/03/13 08:06:07;;;;;;;10.97;3.60;;;;;;;;;;4293511;33;20080;-96
2021/03/13 08:08:46;;;;;;;43.00;39.10;;;;;;;;;;4293961;33;20106;-95
2021/03/13 08:11:47;;;;;;;25.33;22.80;;;;;;;;;;4303817;33;20052;-96
2021/03/13 08:14:39;;;;;;;13.30;3.72;;;;;;;;;;4303754;33;20057;-95
2021/03/13 08:17:38;;;;;;;11.40;4.30;;;;;;;;;;4294607;33;20052;-96
2021/03/13 08:20:28;;;;;;;16.35;6.62;;;;;;;;;;4303115;33;20115;-96
2021/03/13 08:23:20;;;;;;;11.32;3.83;;;;;;;;;;4293955;33;20040;-96
2021/03/13 08:26:29;;;;;;;9.93;3.47;;;;;;;;;;4309413;33;20521;-96
2021/03/13 08:29:51;;;;;;;;;;;;;;;;;;;;;
2021/03/13 08:33:22;;;;;;;;;;;;;;;;;;;;;
2021/03/13 08:37:25;;;;;;;12.93;3.17;;;;;;;;;;4307342;33;20085;-96
2021/03/13 08:40:43;;;;;;;11.40;3.60;;;;;;;;;;4303911;33;20109;-96
2021/03/13 08:43:40;;;;;;;15.55;9.60;;;;;;;;;;4262396;33;20185;-96
2021/03/13 08:46:50;;;;;;;16.52;6.55;;;;;;;;;;4264370;33;20054;-96
2021/03/13 08:49:43;;;;;;;13.50;6.00;;;;;;;;;;4272203;33;20067;-95
2021/03/13 08:52:40;;;;;;;12.98;5.03;;;;;;;;;;4265208;33;20062;-96
2021/03/13 08:55:34;;;;;;;11.55;3.92;;;;;;;;;;4247731;33;20104;-95
2021/03/13 08:58:39;;;;;;;12.00;4.30;;;;;;;;;;4305473;33;20132;-96
2021/03/13 09:01:45;;;;;;;9.10;5.07;;;;;;;;;;4300634;33;20489;-96
2021/03/13 09:07:01;;;;;;;9.70;5.20;;;;;;;;;;4306752;33;20074;-96
2021/03/13 09:09:33;;;;;;;10.68;6.95;;;;;;;;;;4300842;33;20062;-95
2021/03/13 09:12:09;;;;;;;7.30;6.55;;;;;;;;;;4290402;33;20042;-96
2021/03/13 09:15:13;;;;;;;10.80;8.13;;;;;;;;;;4313699;33;20029;-96
2021/03/13 09:20:59;;;;;;;17.30;7.10;;;;;;;;;;4310909;33;20135;-96
2021/03/13 09:23:45;;;;;;;11.98;2.92;;;;;;;;;;4320821;33;20100;-96
2021/03/13 09:26:32;;;;;;;10.48;2.92;;;;;;;;;;4305003;33;20765;-96
2021/03/13 09:29:29;;;;;;;11.77;2.80;;;;;;;;;;4272762;33;20112;-96
2021/03/13 09:32:07;;;;;;;7.00;4.25;;;;;;;;;;4318165;33;20063;-96
2021/03/13 09:34:46;;;;;;;13.18;4.87;;;;;;;;;;4321759;33;20041;-95
2021/03/13 09:37:25;;;;;;;10.63;4.18;;;;;;;;;;4293828;33;20076;-96
2021/03/13 09:40:25;;;;;;;10.27;3.75;;;;;;;;;;4311908;33;20080;-95
2021/03/13 09:43:39;;;;;;;9.27;3.40;;;;;;;;;;4301370;33;20061;-96
2021/03/13 09:46:32;;;;;;;10.00;2.70;;;;;;;;;;4300983;33;20160;-96
2021/03/13 09:49:09;;;;;;;9.20;2.85;;;;;;;;;;4295888;33;20096;-94
2021/03/13 09:51:49;;;;;;;11.57;3.90;;;;;;;;;;4316064;33;20371;-96
2021/03/13 09:54:30;;;;;;;13.13;3.92;;;;;;;;;;4309898;33;20095;-96
2021/03/13 09:57:13;;;;;;;8.88;3.50;;;;;;;;;;4295031;33;20075;-96
2021/03/13 09:59:56;;;;;;;8.75;3.50;;;;;;;;;;4300182;33;20087;-96
2021/03/13 10:02:31;;;;;;;11.02;2.80;;;;;;;;;;4287339;33;20053;-95
2021/03/13 10:05:09;;;;;;;11.73;2.28;;;;;;;;;;4308537;33;20054;-95
2021/03/13 10:08:40;;;;;;;9.35;2.40;;;;;;;;;;4307830;33;20032;-95
2021/03/13 10:11:22;;;;;;;11.10;2.67;;;;;;;;;;4296791;33;20077;-96
2021/03/13 10:14:54;;;;;;;;;;;;;;;;;;;;;
2021/03/13 10:17:56;;;;;;;12.37;2.65;;;;;;;;;;4336360;33;20056;-96
2021/03/13 10:21:00;;;;;;;20.60;3.85;;;;;;;;;;4306130;33;20041;-96
2021/03/13 10:23:58;;;;;;;9.23;2.85;;;;;;;;;;4340216;27;20452;-76
2021/03/13 10:26:29;;;;;;;8.52;2.20;;;;;;;;;;4293472;33;20109;-76
2021/03/13 10:28:58;;;;;;;9.70;2.80;;;;;;;;;;4295293;33;20082;-78
2021/03/13 10:31:28;;;;;;;11.73;2.50;;;;;;;;;;4294050;33;20162;-78
2021/03/13 10:34:00;;;;;;;6.37;2.10;;;;;;;;;;4297397;33;20116;-81
2021/03/13 10:36:47;;;;;;;8.50;2.30;;;;;;;;;;4298462;33;20813;-79
2021/03/13 10:39:16;;;;;;;8.77;2.40;;;;;;;;;;4295362;33;20447;-78
2021/03/13 10:41:53;;;;;;;7.90;2.60;;;;;;;;;;4300106;33;20056;-79
2021/03/13 10:44:20;;;;;;;11.05;3.08;;;;;;;;;;4299903;33;20088;-78
2021/03/13 10:46:49;;;;;;;6.00;2.35;;;;;;;;;;4300107;33;20572;-78
2021/03/13 10:49:25;;;;;;;9.93;2.90;;;;;;;;;;4292112;33;20095;-80
2021/03/13 10:51:54;;;;;;;9.50;2.75;;;;;;;;;;4297389;33;20080;-79
2021/03/13 10:54:23;;;;;;;9.73;2.40;;;;;;;;;;4293943;33;20109;-78
2021/03/13 10:56:51;;;;;;;6.75;2.37;;;;;;;;;;4291747;33;20079;-80
2021/03/13 10:59:32;;;;;;;9.20;2.00;;;;;;;;;;4291089;33;20437;-78
2021/03/13 11:02:00;;;;;;;8.55;2.60;;;;;;;;;;4288714;33;20056;-79
2021/03/13 11:04:29;;;;;;;7.45;2.30;;;;;;;;;;4293948;33;20061;-78
2021/03/13 11:06:59;;;;;;;9.05;2.33;;;;;;;;;;4297388;33;20049;-78
2021/03/13 11:09:29;;;;;;;10.00;2.70;;;;;;;;;;4300860;33;20424;-77
2021/03/13 11:11:57;;;;;;;9.13;2.30;;;;;;;;;;4292250;33;20135;-78
2021/03/13 11:14:25;;;;;;;8.20;2.28;;;;;;;;;;4292970;33;20105;-77
2021/03/13 11:16:53;;;;;;;9.25;3.15;;;;;;;;;;4294489;33;20542;-80
2021/03/13 11:19:25;;;;;;;7.12;3.00;;;;;;;;;;4293767;33;20069;-77
2021/03/13 11:21:53;;;;;;;13.93;2.50;;;;;;;;;;4298519;33;20053;-78
2021/03/13 11:24:23;;;;;;;11.40;2.50;;;;;;;;;;4305719;33;20068;-79
2021/03/13 11:26:51;;;;;;;12.55;2.85;;;;;;;;;;4312511;33;20053;-78
2021/03/13 11:29:19;;;;;;;9.65;2.62;;;;;;;;;;4310882;33;20507;-78
2021/03/13 11:31:48;;;;;;;8.75;3.05;;;;;;;;;;4309866;33;20111;-80
2021/03/13 11:34:16;;;;;;;10.13;3.10;;;;;;;;;;4309982;33;20132;-78
2021/03/13 11:36:44;;;;;;;7.78;2.62;;;;;;;;;;4311469;33;20056;-78
2021/03/13 11:39:12;;;;;;;10.43;2.97;;;;;;;;;;4310325;33;20056;-78
2021/03/13 11:41:53;;;;;;;12.68;2.75;;;;;;;;;;4307262;33;20053;-79
2021/03/13 11:44:21;;;;;;;13.02;3.05;;;;;;;;;;4308675;33;20052;-78
2021/03/13 11:46:49;;;;;;;25.10;3.55;;;;;;;;;;4310029;33;20069;-77
2021/03/13 11:49:17;;;;;;;12.13;2.90;;;;;;;;;;4297890;33;20353;-77
2021/03/13 11:51:45;;;;;;;11.15;2.95;;;;;;;;;;4307709;33;20195;-78
2021/03/13 11:54:13;;;;;;;9.38;2.58;;;;;;;;;;4309068;33;20363;-78
2021/03/13 11:56:41;;;;;;;12.88;3.00;;;;;;;;;;4306751;33;20128;-77
2021/03/13 11:59:09;;;;;;;11.88;2.87;;;;;;;;;;4307729;33;20068;-78
2021/03/13 12:01:37;;;;;;;7.40;2.78;;;;;;;;;;4308282;33;20056;-77
2021/03/13 12:04:05;;;;;;;10.13;2.92;;;;;;;;;;4311714;33;20107;-79
2021/03/13 12:06:33;;;;;;;9.65;2.83;;;;;;;;;;4309609;33;20064;-77
2021/03/13 12:09:04;;;;;;;7.35;2.47;;;;;;;;;;4313206;33;20045;-78
2021/03/13 12:11:33;;;;;;;9.38;3.00;;;;;;;;;;4312278;33;20072;-77
2021/03/13 12:14:00;;;;;;;8.68;3.08;;;;;;;;;;4310268;33;20199;-81
2021/03/13 12:16:28;;;;;;;8.63;2.70;;;;;;;;;;4309279;33;20139;-81
2021/03/13 12:18:57;;;;;;;12.95;2.92;;;;;;;;;;4309011;33;20112;-78
2021/03/13 12:21:25;;;;;;;9.90;2.90;;;;;;;;;;4296403;33;20226;-79
2021/03/13 12:23:53;;;;;;;7.75;2.65;;;;;;;;;;4307909;33;20147;-78
2021/03/13 12:26:21;;;;;;;9.02;2.70;;;;;;;;;;4309902;33;20338;-78
2021/03/13 12:28:49;;;;;;;18.40;3.35;;;;;;;;;;4310385;33;20407;-77
2021/03/13 12:31:17;;;;;;;15.82;3.33;;;;;;;;;;4311723;33;20140;-78
2021/03/13 12:33:48;;;;;;;11.95;2.70;;;;;;;;;;4311588;33;20097;-77
2021/03/13 12:36:16;;;;;;;10.38;2.80;;;;;;;;;;4310899;33;20127;-78
2021/03/13 12:38:44;;;;;;;10.30;2.65;;;;;;;;;;4309361;33;20124;-77
2021/03/13 12:41:12;;;;;;;9.48;3.00;;;;;;;;;;4296100;33;20092;-77
2021/03/13 12:43:41;;;;;;;8.23;2.45;;;;;;;;;;4305878;33;20083;-77
2021/03/13 12:46:14;;;;;;;9.23;2.90;;;;;;;;;;4304291;33;20060;-77
2021/03/13 12:48:44;;;;;;;11.05;3.00;;;;;;;;;;4311111;33;20061;-78
2021/03/13 12:51:12;;;;;;;10.95;2.72;;;;;;;;;;4310261;33;20395;-77
2021/03/13 12:53:40;;;;;;;12.75;2.70;;;;;;;;;;4312437;33;20053;-78
2021/03/13 12:56:09;;;;;;;8.30;2.60;;;;;;;;;;4309369;33;20117;-77
2021/03/13 12:58:37;;;;;;;14.00;3.00;;;;;;;;;;4309963;33;20057;-78
2021/03/13 13:01:05;;;;;;;22.02;3.62;;;;;;;;;;4308613;33;20075;-76
2021/03/13 13:03:34;;;;;;;11.45;2.87;;;;;;;;;;4307193;33;20500;-78
2021/03/13 13:06:02;;;;;;;13.07;2.80;;;;;;;;;;4309917;33;20044;-77
2021/03/13 13:08:30;;;;;;;14.43;2.83;;;;;;;;;;4309113;33;20052;-77
2021/03/13 13:10:58;;;;;;;12.48;3.08;;;;;;;;;;4310264;33;20083;-78
2021/03/13 13:13:26;;;;;;;11.12;3.05;;;;;;;;;;4310484;33;21125;-78
2021/03/13 13:15:58;;;;;;;14.18;3.50;;;;;;;;;;4307416;33;20100;-77
2021/03/13 13:18:28;;;;;;;11.60;2.72;;;;;;;;;;4311366;33;20084;-80
2021/03/13 13:20:56;;;;;;;12.50;2.80;;;;;;;;;;4309402;33;20135;-78
2021/03/13 13:23:24;;;;;;;24.92;4.35;;;;;;;;;;4309354;33;20068;-77
2021/03/13 13:25:53;;;;;;;10.30;2.80;;;;;;;;;;4309018;33;20472;-77
2021/03/13 13:28:21;;;;;;;12.15;3.17;;;;;;;;;;4307746;33;20050;-77
2021/03/13 13:30:49;;;;;;;11.35;2.78;;;;;;;;;;4309009;33;20052;-79
2021/03/13 13:33:17;;;;;;;14.95;3.20;;;;;;;;;;4310409;33;20454;-78
2021/03/13 13:35:47;;;;;;;13.10;3.22;;;;;;;;;;4308449;33;20063;-77
2021/03/13 13:38:15;;;;;;;7.50;3.08;;;;;;;;;;4309259;33;20057;-77
2021/03/13 13:40:44;;;;;;;11.43;3.03;;;;;;;;;;4311046;33;21234;-77
2021/03/13 13:43:12;;;;;;;15.30;3.33;;;;;;;;;;4308904;33;20052;-76
2021/03/13 13:45:40;;;;;;;15.07;3.50;;;;;;;;;;4309355;33;20079;-78
2021/03/13 13:48:10;;;;;;;11.70;3.60;;;;;;;;;;4307876;33;20493;-78
2021/03/13 13:50:37;;;;;;;13.50;3.50;;;;;;;;;;4307470;33;20170;-76
2021/03/13 13:53:05;;;;;;;10.73;3.40;;;;;;;;;;4314491;33;20075;-77
2021/03/13 13:55:33;;;;;;;14.20;3.83;;;;;;;;;;4305274;33;20048;-78
2021/03/13 13:58:02;;;;;;;15.65;3.90;;;;;;;;;;4306253;33;20056;-78
2021/03/13 14:00:30;;;;;;;21.40;4.30;;;;;;;;;;4308108;33;20096;-79
2021/03/13 14:02:58;;;;;;;14.18;4.12;;;;;;;;;;4299182;33;20140;-78
2021/03/13 14:05:26;;;;;;;12.07;3.72;;;;;;;;;;4298042;33;20099;-78
2021/03/13 14:07:54;;;;;;;14.23;4.05;;;;;;;;;;4318046;33;20134;-76
2021/03/13 14:10:30;;;;;;;14.65;4.53;;;;;;;;;;4318265;33;20190;-77
2021/03/13 14:12:58;;;;;;;14.38;5.22;;;;;;;;;;4307289;33;20049;-78
2021/03/13 14:15:28;;;;;;;10.50;4.60;;;;;;;;;;4307465;33;20112;-78
2021/03/13 14:17:56;;;;;;;14.00;5.70;;;;;;;;;;4304314;33;20180;-78
2021/03/13 14:20:24;;;;;;;16.60;5.37;;;;;;;;;;4306278;33;20111;-78
2021/03/13 14:22:52;;;;;;;14.27;5.45;;;;;;;;;;4303298;33;20470;-78
2021/03/13 14:25:21;;;;;;;16.73;5.70;;;;;;;;;;4297089;33;20119;-78
2021/03/13 14:27:49;;;;;;;13.35;4.85;;;;;;;;;;4296424;33;20100;-78
2021/03/13 14:30:18;;;;;;;16.40;4.70;;;;;;;;;;4303166;33;20104;-78
2021/03/13 14:32:47;;;;;;;10.35;4.43;;;;;;;;;;4297188;33;20182;-78
2021/03/13 14:35:19;;;;;;;19.17;4.87;;;;;;;;;;4297571;33;20092;-82
2021/03/13 14:37:48;;;;;;;13.40;4.68;;;;;;;;;;4301214;33;20479;-79
2021/03/13 14:40:16;;;;;;;21.42;5.62;;;;;;;;;;4314002;33;20068;-77
2021/03/13 14:42:45;;;;;;;16.95;5.93;;;;;;;;;;4316088;33;20127;-79
2021/03/13 14:45:14;;;;;;;16.35;6.55;;;;;;;;;;4297370;33;20053;-80
2021/03/13 14:47:42;;;;;;;16.08;6.90;;;;;;;;;;4292760;33;20052;-79
2021/03/13 14:50:11;;;;;;;16.48;7.65;;;;;;;;;;4289293;33;20111;-79
2021/03/13 14:52:47;;;;;;;19.80;7.72;;;;;;;;;;4304759;33;20056;-78
2021/03/13 14:55:16;;;;;;;22.95;8.30;;;;;;;;;;4302959;33;20100;-78
2021/03/13 14:57:44;;;;;;;21.42;8.05;;;;;;;;;;4304323;33;20106;-77
2021/03/13 15:00:14;;;;;;;17.60;8.10;;;;;;;;;;4306121;33;20345;-78
2021/03/13 15:02:42;;;;;;;42.10;9.73;;;;;;;;;;4309806;33;20098;-78
2021/03/13 15:05:11;;;;;;;14.00;7.97;;;;;;;;;;4310720;33;20088;-77
2021/03/13 15:07:40;;;;;;;19.20;8.15;;;;;;;;;;4322440;33;20083;-77
2021/03/13 15:10:10;;;;;;;18.70;7.72;;;;;;;;;;4312502;33;20079;-79
2021/03/13 15:12:38;;;;;;;16.25;7.97;;;;;;;;;;4309672;33;20116;-77
2021/03/13 15:15:08;;;;;;;12.57;6.50;;;;;;;;;;4308961;33;20079;-76
2021/03/13 15:17:36;;;;;;;19.33;7.70;;;;;;;;;;4312701;33;21480;-79
2021/03/13 15:20:06;;;;;;;20.15;7.20;;;;;;;;;;4306739;33;20075;-77
2021/03/13 15:22:34;;;;;;;18.23;7.03;;;;;;;;;;4312135;33;20100;-77
2021/03/13 15:25:10;;;;;;;17.40;6.60;;;;;;;;;;4308253;33;20443;-79
2021/03/13 15:27:43;;;;;;;15.45;6.62;;;;;;;;;;4319751;33;20190;-78
2021/03/13 15:30:13;;;;;;;15.50;6.97;;;;;;;;;;4311746;33;20117;-77
2021/03/13 15:32:43;;;;;;;32.28;7.60;;;;;;;;;;4316144;33;20490;-77
2021/03/13 15:35:12;;;;;;;21.30;6.85;;;;;;;;;;4309216;33;20091;-77